VTUWVLVT

Guest
Details From VTUW - Nakhon Phanom
To VLVT - Vientiane Wattay
Flight Number -
Tags generated
Created
Modified
Stats Distance 132 nm / 245 km
Max Altitude 10,900 ft / 3,322 m
Waypoints 3
Social Downloads 22
Likes 0
Share VATSIM

Download

Looking for another format? Having issues loading an existing format? Contact us
Advertisement - Login to hide

Notes

Basic altitude profile: - Ascent Rate: 2500ft/min - Ascent Speed: 250kts - Cruise Altitude: 35000ft - Cruise Speed: 420kts - Descent Rate: 1500ft/min - Descent Speed: 250kts Options: - Use NATs: yes - Use PACOTS: yes - Use low airways: yes - Use high airways: yes

Route

VTUW SKN VLVT

ID Type Via Altitude Latitude Longitude Leg Dist Tot Dist Heading (true) Name
O VTUW APT - 0 ft / 0 m 17.38379˚ 104.64302˚ - 0 nm - Nakhon Phanom
SKN VOR - 10,900 ft / 3,322 m 17.21414˚ 104.13676˚ 30 nm 30 nm 251° / 251° SAKON NAKHON VOR-DME
O VLVT APT - 0 ft / 0 m 17.98834˚ 102.56322˚ 101 nm 132 nm 298° / 297° Vientiane Wattay

Altitude Profile

Advertisement - Login to hide

VTUW

Details ICAO VTUW (KOP)
Name Nakhon Phanom
Region Thailand
Timezone Asia/Bangkok (UTC+7.0)
Stats Elevation 587 ft / 179 m (AMSL)
Location 17.383795° 104.643022°
Runways 1
Magnetic Variation 1.003° W

METAR

Not found

TAF

TAF VTUW 121100Z 1212/1312 09008KT 8000 SCT035 BECMG 1222/1224 5000 BR BECMG 1301/1303 9999 NSW

Decode

Departure Runways

ID Width Length Bearing (true) Bearing (mag) Surface Threshold Offset Overrun Length
15 148 ft / 45 m 8,241 ft / 2,512 m 144.98° 145.98° Asphalt 0 ft / 0 m 197 ft / 60 m
33 148 ft / 45 m 8,241 ft / 2,512 m 324.99° 325.99° Asphalt 0 ft / 0 m 197 ft / 60 m

VLVT

Details ICAO VLVT (VTE)
Name Vientiane Wattay
Region Laos
Timezone Asia/Vientiane (UTC+7.0)
Stats Elevation 1,850 ft / 564 m (AMSL)
Location 17.988343° 102.563222°
Runways 1
Magnetic Variation 0.899° W

METAR

VLVT 121630Z 00000KT 3000 BR BKN050 23/21 Q1013 NOSIG

Decode

TAF

TAF TAF VLVT 121100Z 1212/1312 06006KT 7000 FEW020 BKN050 TEMPO 1214/1220 4000 BR BKN050

Decode

Destination Runways

ID Width Length Bearing (true) Bearing (mag) Surface Threshold Offset Overrun Length
13 148 ft / 45 m 9,862 ft / 3,006 m 135.42° 136.32° Asphalt 0 ft / 0 m 0 ft / 0 m
31 148 ft / 45 m 9,862 ft / 3,006 m 315.42° 316.32° Asphalt 0 ft / 0 m 0 ft / 0 m

Approach Navaids

Runway Type Ident Frequency Range Bearing (true) Bearing (mag) Slope Elevation
13 Localiser IVTN 109.90 MHz 18 nm / 33 km 135.43° 136.33° - 553 ft / 169 m (AMSL)
13 Glidescope IVTN 109.90 MHz 10 nm / 19 km 136.00° 136.90° 3.00° 550 ft / 168 m (AMSL)
13 DME IVTN 109.90 MHz 18 nm / 33 km - - - 550 ft / 168 m (AMSL)